Greeley, IA (52050)

3:51 AM CDT on September 01, 2014 (GMT -0500)
KIASTRAW2 | Change Station
CLOSE
Current Station
Personal Weather Station
Location: Strawberry Point, IA
Elevation: 1220 ft
Nearby Weather Stations

Elev 1220 ft 42.68 °N, 91.53 °W | Updated 3 minutes ago

Rain
Rain
63.8 °F
Feels Like 63.8 °F
N
8.0
Wind Variable Wind from ESE
Gusts 11.0 mph

Today
High -- | Low -- °F
--% Chance of Precip.
Yesterday
High -- | Low -- °F
Precip. -- in
6:30 AM 7:39 PM
Waxing Crescent, 39% visible
Pressure 29.76 in
Visibility 10.0 miles
Clouds Few 5000 ft
Mostly Cloudy 7000 ft
Overcast 11000 ft
Dew Point 63 °F
Humidity 96%
Rainfall -999.00 in
Snow Depth Not available.
UV 0 out of 12
Pollen 8.60 out of 12
Air Quality Not available.
Flu Activity Not available.
METAR KMXO 010835Z AUTO 12007G15KT 090V150 10SM FEW050 BKN070 OVC110 18/18 A2976 RMK AO2

More Conditions Fewer Conditions

Pressure 29.76 in
Visibility 10.0 miles
Clouds Few 5000 ft
Mostly Cloudy 7000 ft
Overcast 11000 ft
Dew Point 63 °F
Humidity 96%
Rainfall -999.00 in
Snow Depth Not available.
UV 0 out of 12
Pollen 8.60 out of 12
Air Quality Not available.
Flu Activity Not available.
METAR KMXO 010835Z AUTO 12007G15KT 090V150 10SM FEW050 BKN070 OVC110 18/18 A2976 RMK AO2

More Conditions Fewer Conditions

10-Day Weather Forecast

Almanac

Astronomy

Sep. 01, 2014 Rise Set
Actual Time 6:30 AM CDT 7:39 PM CDT
Civil Twilight 6:01 AM CDT 8:08 PM CDT
Nautical Twilight 5:26 AM CDT 8:43 PM CDT
Astronomical Twilight 4:49 AM CDT 9:19 PM CDT
Moon 1:25 PM CDT 11:31 PM CDT
Length of Visible Light 14h 07m
Length of Day
13h 09m
Tomorrow will be 2m 46s shorter.
Waxing Crescent, 39% of the Moon is Illuminated
Today
Waxing Crescent
Sep 2
First Quarter
Sep 8
Full
Sep 15
Last Quarter
Sep 24
New

Today's Extremes

State Highs State Lows

Community

WunderPhotos

Upload Photos

1,749,178 photos uploaded!

Nearby

Snow Depth

Station Depth Elevation
No new snow has been reported.

Earthquake Activity

City Distance Mag. Time & Date
No recent earthquake activity has been reported nearby.
Minimum magnitude displayed is 2.5.

Coastal Water Temperatures

Place Temperature
No Stations Reporting

Nearby Weather Stations